createdAt,value
2022-09-18T00:03:42.962Z,0.13
2022-09-18T00:08:50.092Z,0.36
2022-09-18T00:13:56.528Z,0.26
2022-09-18T00:19:03.170Z,0.25
2022-09-18T00:24:09.539Z,0.54
2022-09-18T00:29:16.296Z,0.19
2022-09-18T00:34:22.681Z,0.62
2022-09-18T00:39:29.376Z,0.21
2022-09-18T00:44:35.795Z,0.21
2022-09-18T00:49:42.449Z,0.33
2022-09-18T00:54:48.815Z,0.28
2022-09-18T00:59:55.529Z,0.18
2022-09-18T01:05:01.958Z,0.33
2022-09-18T01:10:08.628Z,0.20
2022-09-18T01:15:14.966Z,0.20
2022-09-18T01:20:21.568Z,0.46
2022-09-18T01:25:27.919Z,0.21
2022-09-18T01:30:34.712Z,0.23
2022-09-18T01:35:42.464Z,0.21
2022-09-18T01:40:50.053Z,0.34
2022-09-18T01:45:56.470Z,0.17
2022-09-18T01:51:03.171Z,0.19
2022-09-18T01:56:09.566Z,0.29
2022-09-18T02:01:16.418Z,0.23
2022-09-18T02:06:22.681Z,0.19
2022-09-18T02:11:29.996Z,0.13
2022-09-18T02:16:36.396Z,0.16
2022-09-18T02:21:43.037Z,0.20
2022-09-18T02:26:49.486Z,0.22
2022-09-18T02:31:56.246Z,0.15
2022-09-18T02:37:02.624Z,0.28
2022-09-18T02:42:09.229Z,0.40
2022-09-18T02:47:15.628Z,0.25
2022-09-18T02:52:22.352Z,0.15
2022-09-18T02:57:28.789Z,0.20
2022-09-18T03:02:35.472Z,0.24
2022-09-18T03:07:41.787Z,0.16
2022-09-18T03:12:48.604Z,0.27
2022-09-18T03:17:54.946Z,0.23
2022-09-18T03:23:02.422Z,0.25
2022-09-18T03:28:08.770Z,0.31
2022-09-18T03:33:16.192Z,0.55
2022-09-18T03:38:22.555Z,0.23
2022-09-18T03:43:29.318Z,0.19
2022-09-18T03:48:35.727Z,0.19
2022-09-18T03:53:42.442Z,0.23
2022-09-18T03:58:48.791Z,0.30
2022-09-18T04:03:55.438Z,0.27
2022-09-18T04:09:02.026Z,0.18
2022-09-18T04:14:08.860Z,0.18
2022-09-18T04:19:15.205Z,0.17
2022-09-18T04:24:22.720Z,0.27
2022-09-18T04:29:29.066Z,0.13
2022-09-18T04:34:36.524Z,0.16
2022-09-18T04:39:42.846Z,0.24
2022-09-18T04:44:49.570Z,0.25
2022-09-18T04:49:55.913Z,0.35
2022-09-18T04:55:02.672Z,0.13
2022-09-18T05:00:09.028Z,0.16
2022-09-18T05:05:15.641Z,1.30
2022-09-18T05:10:21.980Z,0.21
2022-09-18T05:15:29.270Z,0.13
2022-09-18T05:20:35.632Z,0.21
2022-09-18T05:25:42.299Z,0.56
2022-09-18T05:30:48.699Z,0.18
2022-09-18T05:35:55.593Z,0.21
2022-09-18T05:41:02.064Z,0.23
2022-09-18T05:46:08.786Z,0.19
2022-09-18T05:51:16.488Z,0.95
2022-09-18T05:56:23.201Z,0.19
2022-09-18T06:01:29.590Z,0.44
2022-09-18T06:06:38.951Z,1.37
2022-09-18T06:11:45.228Z,0.21
2022-09-18T06:16:53.286Z,0.26
2022-09-18T06:21:59.650Z,0.17
2022-09-18T06:27:06.315Z,0.36
2022-09-18T06:32:12.667Z,0.77
2022-09-18T06:37:20.762Z,0.27
2022-09-18T06:42:27.522Z,0.36
2022-09-18T06:47:34.861Z,0.10
2022-09-18T06:52:41.193Z,0.36
2022-09-18T06:57:48.016Z,0.19
2022-09-18T07:02:54.443Z,0.88
2022-09-18T07:08:01.857Z,0.21
2022-09-18T07:13:10.749Z,0.22
2022-09-18T07:18:18.683Z,0.39
2022-09-18T07:23:25.125Z,0.18
2022-09-18T07:28:32.565Z,0.35
2022-09-18T07:33:38.935Z,0.20
2022-09-18T07:38:47.122Z,0.19
2022-09-18T07:43:53.810Z,0.19
2022-09-18T07:49:00.534Z,0.15
2022-09-18T07:54:06.979Z,0.29
2022-09-18T07:59:13.679Z,0.24
2022-09-18T08:04:22.283Z,0.23
2022-09-18T08:09:28.216Z,0.39
2022-09-18T08:14:34.592Z,0.53
2022-09-18T08:19:41.271Z,0.20
2022-09-18T08:24:47.630Z,0.14
2022-09-18T08:29:54.395Z,0.46
2022-09-18T08:35:00.823Z,0.48
2022-09-18T08:40:07.557Z,0.23
2022-09-18T08:45:13.840Z,0.17
2022-09-18T08:50:21.397Z,0.56
2022-09-18T08:55:27.725Z,1.67
2022-09-18T09:00:35.160Z,0.38
2022-09-18T09:05:41.465Z,0.13
2022-09-18T09:10:48.243Z,0.37
2022-09-18T09:15:54.600Z,0.51
2022-09-18T09:21:01.739Z,0.46
2022-09-18T09:26:08.105Z,0.19
2022-09-18T09:31:15.586Z,0.21
2022-09-18T09:36:21.992Z,0.34
2022-09-18T09:41:29.573Z,0.24
2022-09-18T09:46:36.076Z,0.64
2022-09-18T09:51:42.671Z,0.47
2022-09-18T09:56:49.106Z,0.45
2022-09-18T10:01:55.784Z,0.19
2022-09-18T10:07:02.151Z,0.30
2022-09-18T10:12:08.811Z,0.21
2022-09-18T10:17:15.217Z,1.33
2022-09-18T10:22:22.044Z,1.21
2022-09-18T10:27:28.462Z,0.31
2022-09-18T10:32:35.904Z,1.45
2022-09-18T10:37:42.661Z,1.19
2022-09-18T10:42:50.146Z,0.37
2022-09-18T10:47:56.846Z,1.28
2022-09-18T10:53:03.521Z,0.24
2022-09-18T10:58:09.903Z,0.38
2022-09-18T11:03:16.576Z,1.82
2022-09-18T11:08:23.055Z,0.48
2022-09-18T11:13:29.996Z,0.52
2022-09-18T11:18:36.986Z,0.22
2022-09-18T11:23:45.008Z,0.34
2022-09-18T11:28:51.765Z,0.27
2022-09-18T11:34:00.714Z,0.45
2022-09-18T11:39:04.278Z,0.50
2022-09-18T11:44:10.859Z,0.37
2022-09-18T11:49:17.222Z,0.46
2022-09-18T11:54:23.909Z,0.59
2022-09-18T11:59:30.250Z,1.06
2022-09-18T12:04:36.864Z,0.87
2022-09-18T12:09:42.144Z,0.89
2022-09-18T12:14:49.608Z,0.67
2022-09-18T12:19:55.967Z,0.89
2022-09-18T12:25:03.905Z,1.23
2022-09-18T12:30:12.656Z,0.53
2022-09-18T12:35:19.257Z,0.74
2022-09-18T12:40:26.316Z,0.71
2022-09-18T12:45:32.908Z,0.77
2022-09-18T12:50:39.262Z,0.63
2022-09-18T12:55:45.912Z,0.67
2022-09-18T13:00:52.394Z,0.72
2022-09-18T13:05:58.929Z,1.68
2022-09-18T13:11:05.248Z,1.13
2022-09-18T13:16:15.148Z,0.98
2022-09-18T13:21:23.987Z,0.85
2022-09-18T13:26:32.797Z,1.79
2022-09-18T13:31:41.271Z,1.18
2022-09-18T13:36:52.774Z,1.14
2022-09-18T13:41:50.272Z,1.23
2022-09-18T13:46:59.794Z,1.46
2022-09-18T13:52:06.085Z,1.79
2022-09-18T13:57:13.519Z,1.21
2022-09-18T14:02:19.934Z,2.31
2022-09-18T14:07:31.137Z,1.49
2022-09-18T14:12:27.420Z,1.63
2022-09-18T14:17:34.156Z,1.28
2022-09-18T14:22:40.546Z,1.15
2022-09-18T14:27:47.815Z,1.54
2022-09-18T14:32:54.165Z,1.47
2022-09-18T14:38:00.821Z,2.01
2022-09-18T14:43:07.196Z,1.30
2022-09-18T14:48:15.647Z,1.42
2022-09-18T14:53:19.742Z,1.49
2022-09-18T14:58:26.458Z,1.44
2022-09-18T15:03:32.842Z,1.44
2022-09-18T15:08:39.532Z,1.28
2022-09-18T15:13:45.940Z,0.87
2022-09-18T15:18:52.699Z,1.05
2022-09-18T15:23:59.160Z,1.25
2022-09-18T15:29:06.544Z,0.95
2022-09-18T15:34:12.942Z,0.98
2022-09-18T15:39:19.656Z,0.94
2022-09-18T15:44:26.037Z,0.90
2022-09-18T15:49:33.414Z,0.80
2022-09-18T15:54:39.742Z,0.76
2022-09-18T15:59:47.565Z,1.27
2022-09-18T16:04:53.950Z,1.68
2022-09-18T16:10:00.660Z,0.86
2022-09-18T16:15:09.155Z,1.06
2022-09-18T16:20:15.687Z,0.72
2022-09-18T16:25:22.105Z,0.66
2022-09-18T16:30:29.713Z,0.79
2022-09-18T16:35:36.200Z,0.57
2022-09-18T16:40:42.956Z,0.69
2022-09-18T16:45:49.290Z,0.85
2022-09-18T16:50:56.104Z,0.78
2022-09-18T16:56:02.362Z,0.63
2022-09-18T17:01:09.111Z,0.41
2022-09-18T17:06:18.853Z,0.54
2022-09-18T17:11:23.506Z,0.43
2022-09-18T17:16:43.825Z,0.47
2022-09-18T17:21:36.135Z,0.35
2022-09-18T17:31:48.733Z,0.43
2022-09-18T17:36:55.234Z,0.70
2022-09-18T17:42:01.948Z,0.79
2022-09-18T17:47:08.261Z,0.46
2022-09-18T17:52:14.982Z,0.60
2022-09-18T17:57:21.317Z,0.39
2022-09-18T18:02:28.098Z,0.41
2022-09-18T18:07:34.478Z,0.25
2022-09-18T18:12:41.807Z,0.37
2022-09-18T18:17:48.148Z,0.17
2022-09-18T18:22:55.833Z,0.24
2022-09-18T18:28:02.183Z,0.13
2022-09-18T18:33:08.901Z,0.13
2022-09-18T18:38:15.381Z,0.21
2022-09-18T18:43:22.112Z,0.24
2022-09-18T18:48:29.323Z,0.21
2022-09-18T18:53:36.439Z,0.44
2022-09-18T18:58:43.508Z,0.65
2022-09-18T19:03:51.794Z,0.23
2022-09-18T19:08:58.247Z,1.26
2022-09-18T19:14:06.076Z,0.46
2022-09-18T19:19:12.489Z,0.33
2022-09-18T19:24:19.276Z,0.24
2022-09-18T19:29:26.153Z,0.27
2022-09-18T19:34:33.042Z,0.29
2022-09-18T19:39:39.492Z,0.24
2022-09-18T19:44:47.007Z,0.22
2022-09-18T19:49:53.365Z,0.28
2022-09-18T19:55:00.373Z,0.67
2022-09-18T20:00:07.081Z,0.32
2022-09-18T20:05:15.054Z,0.44
2022-09-18T20:10:23.261Z,0.21
2022-09-18T20:15:29.717Z,0.32
2022-09-18T20:20:36.076Z,0.43
2022-09-18T20:25:42.709Z,0.45
2022-09-18T20:30:49.075Z,0.31
2022-09-18T20:35:56.493Z,0.59
2022-09-18T20:41:06.434Z,0.43
2022-09-18T20:46:09.956Z,0.76
2022-09-18T20:51:16.256Z,0.39
2022-09-18T20:56:22.958Z,0.35
2022-09-18T21:01:29.317Z,0.32
2022-09-18T21:06:36.159Z,1.67
2022-09-18T21:11:42.498Z,2.75
2022-09-18T21:16:49.309Z,0.90
2022-09-18T21:21:55.663Z,0.50
2022-09-18T21:27:02.409Z,0.49
2022-09-18T21:32:08.835Z,0.43
2022-09-18T21:37:15.476Z,0.40
2022-09-18T21:42:22.510Z,0.50
2022-09-18T21:47:29.186Z,0.58
2022-09-18T21:52:35.541Z,0.29
2022-09-18T21:57:42.246Z,0.47
2022-09-18T22:02:48.620Z,0.41
2022-09-18T22:07:55.481Z,0.33
2022-09-18T22:13:01.840Z,0.30
2022-09-18T22:18:08.530Z,0.23
2022-09-18T22:23:14.876Z,0.30
2022-09-18T22:28:21.867Z,0.36
2022-09-18T22:33:28.202Z,0.40
2022-09-18T22:38:34.991Z,0.42
2022-09-18T22:43:41.363Z,0.23
2022-09-18T22:48:47.949Z,0.35
2022-09-18T22:53:54.293Z,0.28
2022-09-18T22:59:01.045Z,0.34
2022-09-18T23:04:07.581Z,0.31
2022-09-18T23:09:14.223Z,0.38
2022-09-18T23:14:20.582Z,0.21
2022-09-18T23:19:27.269Z,0.29
2022-09-18T23:24:33.627Z,0.27
2022-09-18T23:29:40.870Z,0.28
2022-09-18T23:34:47.228Z,0.34
2022-09-18T23:39:54.605Z,0.29
2022-09-18T23:45:01.034Z,0.32
2022-09-18T23:50:07.586Z,0.21
2022-09-18T23:55:13.942Z,0.47
